Time;durP1;ratioP1;P1;durP2;ratioP2;P2;SDS_P1;SDS_P2;PMS_P1;PMS_P2;Temp;Humidity;BMP_temperature;BMP_pressure;BME280_temperature;BME280_humidity;BME280_pressure;Samples;Min_cycle;Max_cycle;Signal;HPM_P1;HPM_P2
2024/01/30 00:02:19;;;;;;;7.13;4.88;;;;;;;9.57;68.54;102580.75;5091418;28;20143;-64
2024/01/30 00:04:46;;;;;;;12.30;4.80;;;;;;;9.55;68.72;102578.25;5097651;28;20053;-62
2024/01/30 00:07:14;;;;;;;8.50;4.60;;;;;;;9.55;68.42;102574.72;5100353;28;20044;-63
2024/01/30 00:09:42;;;;;;;6.00;4.65;;;;;;;9.55;68.21;102574.72;5099004;28;20051;-62
2024/01/30 00:12:10;;;;;;;6.38;4.57;;;;;;;9.54;68.28;102579.25;5096893;28;20036;-64
2024/01/30 00:14:38;;;;;;;8.25;4.55;;;;;;;9.55;68.65;102575.56;5102490;28;20052;-63
2024/01/30 00:17:07;;;;;;;5.95;4.22;;;;;;;9.56;68.40;102571.88;5094131;28;20079;-63
2024/01/30 00:19:35;;;;;;;10.65;5.03;;;;;;;9.56;68.35;102584.44;5097224;28;20041;-63
2024/01/30 00:22:03;;;;;;;12.00;5.00;;;;;;;9.55;68.38;102574.72;5103169;28;20071;-64
2024/01/30 00:24:31;;;;;;;8.63;4.50;;;;;;;9.55;68.24;102574.72;5105388;28;20097;-63
2024/01/30 00:26:59;;;;;;;6.72;4.30;;;;;;;9.55;67.92;102575.56;5087977;28;20574;-64
2024/01/30 00:29:30;;;;;;;6.70;4.70;;;;;;;9.56;68.21;102571.03;5101097;28;20052;-64
2024/01/30 00:31:58;;;;;;;6.93;4.50;;;;;;;9.54;68.11;102565.84;5101673;28;20052;-64
2024/01/30 00:34:27;;;;;;;9.02;4.32;;;;;;;9.55;67.97;102566.66;5097262;28;20051;-63
2024/01/30 00:36:55;;;;;;;5.47;4.28;;;;;;;9.54;68.14;102565.00;5099992;28;20051;-64
2024/01/30 00:39:23;;;;;;;7.38;4.72;;;;;;;9.52;68.07;102562.47;5104601;28;20048;-64
2024/01/30 00:41:51;;;;;;;9.30;5.05;;;;;;;9.52;68.16;102562.47;5090738;28;20044;-63
2024/01/30 00:44:19;;;;;;;6.60;4.82;;;;;;;9.52;67.94;102559.81;5102156;28;20101;-63
2024/01/30 00:46:46;;;;;;;8.23;4.82;;;;;;;9.52;68.08;102559.81;5106854;28;20044;-62
2024/01/30 00:49:14;;;;;;;7.80;5.05;;;;;;;9.53;68.13;102563.31;5100391;28;20146;-63
2024/01/30 00:51:44;;;;;;;7.35;4.53;;;;;;;9.51;68.25;102555.44;5095720;28;20094;-63
2024/01/30 00:54:11;;;;;;;9.48;4.90;;;;;;;9.51;67.84;102560.81;5102104;28;20048;-63
2024/01/30 00:56:39;;;;;;;8.38;5.00;;;;;;;9.51;67.71;102568.03;5106218;28;20052;-63
2024/01/30 00:59:07;;;;;;;8.75;4.90;;;;;;;9.49;67.80;102562.81;5086360;28;20059;-63
2024/01/30 01:01:35;;;;;;;10.45;4.60;;;;;;;9.49;67.64;102560.16;5093490;28;20053;-62
2024/01/30 01:04:03;;;;;;;6.93;4.78;;;;;;;9.47;68.13;102551.44;5101261;28;20054;-64
2024/01/30 01:06:31;;;;;;;6.78;4.22;;;;;;;9.46;67.82;102549.75;5099237;28;20078;-63
2024/01/30 01:09:00;;;;;;;7.50;4.47;;;;;;;9.44;67.90;102549.09;5102950;28;20044;-64
2024/01/30 01:11:31;;;;;;;6.30;4.40;;;;;;;9.42;68.20;102546.59;5099776;28;20155;-64
2024/01/30 01:13:59;;;;;;;9.73;4.82;;;;;;;9.42;67.92;102548.44;5099208;28;20075;-64
2024/01/30 01:16:27;;;;;;;10.20;4.50;;;;;;;9.40;68.01;102547.75;5097743;28;20051;-63
2024/01/30 01:18:55;;;;;;;6.70;4.20;;;;;;;9.40;68.26;102551.28;5093299;28;20101;-63
2024/01/30 01:21:23;;;;;;;7.40;4.28;;;;;;;9.38;67.87;102545.25;5090665;28;20044;-63
2024/01/30 01:23:51;;;;;;;6.78;4.43;;;;;;;9.36;67.88;102549.94;5096420;28;20074;-63
2024/01/30 01:26:20;;;;;;;10.15;4.75;;;;;;;9.36;68.02;102552.63;5098126;28;20043;-63
2024/01/30 01:28:49;;;;;;;7.63;4.57;;;;;;;9.36;67.95;102541.91;5097450;28;20109;-64
2024/01/30 01:31:17;;;;;;;9.20;4.85;;;;;;;9.36;68.11;102543.75;5087193;28;20048;-64
2024/01/30 01:33:46;;;;;;;8.15;5.13;;;;;;;9.26;67.96;102529.69;5091749;28;20110;-64
2024/01/30 01:36:14;;;;;;;8.60;4.50;;;;;;;9.33;68.09;102536.88;5099284;28;20056;-64
2024/01/30 01:38:42;;;;;;;7.85;4.22;;;;;;;9.34;68.32;102543.09;5086038;28;20071;-64
2024/01/30 01:41:10;;;;;;;7.70;4.20;;;;;;;9.33;67.92;102544.94;5100685;28;20052;-63
2024/01/30 01:43:39;;;;;;;6.72;4.63;;;;;;;9.32;68.00;102537.06;5103430;28;20052;-63
2024/01/30 01:46:09;;;;;;;6.90;3.92;;;;;;;9.27;67.94;102529.53;5096255;28;20052;-64
2024/01/30 01:48:39;;;;;;;7.10;4.53;;;;;;;9.31;67.94;102538.06;5093395;28;20060;-65
2024/01/30 01:51:08;;;;;;;5.90;4.10;;;;;;;9.28;67.95;102525.81;5097042;28;20048;-63
2024/01/30 01:53:36;;;;;;;6.95;4.28;;;;;;;9.29;68.10;102526.66;5095617;28;20104;-62
2024/01/30 01:56:04;;;;;;;7.22;4.65;;;;;;;9.29;67.94;102532.88;5097892;28;20074;-63
2024/01/30 01:58:32;;;;;;;8.20;4.80;;;;;;;9.27;68.04;102529.53;5096399;28;20055;-64
2024/01/30 02:01:01;;;;;;;6.40;4.15;;;;;;;9.28;68.31;102516.94;5085751;28;20113;-63
2024/01/30 02:03:29;;;;;;;7.05;3.80;;;;;;;9.28;67.94;102519.63;5095244;28;20103;-63
2024/01/30 02:05:57;;;;;;;6.72;4.53;;;;;;;9.26;68.65;102519.78;5100408;28;20055;-64
2024/01/30 02:08:25;;;;;;;7.95;4.50;;;;;;;9.26;68.11;102514.44;5086246;28;20079;-63
2024/01/30 02:10:53;;;;;;;6.93;4.45;;;;;;;9.27;67.94;102518.78;5086244;28;20197;-63
2024/01/30 02:13:22;;;;;;;5.65;3.80;;;;;;;9.26;68.12;102508.22;5097887;28;20044;-63
2024/01/30 02:15:51;;;;;;;10.05;4.18;;;;;;;9.27;68.41;102520.63;5097975;28;20079;-63
2024/01/30 02:18:22;;;;;;;6.32;3.97;;;;;;;9.25;68.10;102519.97;5091308;28;20128;-63
2024/01/30 02:20:50;;;;;;;7.70;4.35;;;;;;;9.24;68.08;102518.28;5098441;28;20412;-63
2024/01/30 02:23:20;;;;;;;5.80;4.10;;;;;;;9.25;67.94;102520.81;5100179;28;20150;-64
2024/01/30 02:25:48;;;;;;;9.65;4.45;;;;;;;9.25;68.40;102520.81;5096869;28;20053;-63
2024/01/30 02:28:16;;;;;;;6.38;4.40;;;;;;;9.26;68.17;102510.91;5087476;28;20055;-63
2024/01/30 02:30:44;;;;;;;6.53;4.07;;;;;;;9.26;68.21;102506.38;5088928;28;20049;-63
2024/01/30 02:33:12;;;;;;;7.65;4.50;;;;;;;9.27;67.93;102509.91;5089586;28;20063;-63
2024/01/30 02:35:40;;;;;;;9.10;4.30;;;;;;;9.27;68.40;102510.75;5101873;28;20048;-63
2024/01/30 02:38:08;;;;;;;7.20;4.80;;;;;;;9.26;68.01;102514.44;5098308;28;20143;-64
2024/01/30 02:40:37;;;;;;;5.60;3.95;;;;;;;9.27;67.98;102507.22;5103654;28;20495;-64
2024/01/30 02:43:05;;;;;;;7.50;4.32;;;;;;;9.27;67.99;102509.91;5095884;28;20043;-64
2024/01/30 02:45:33;;;;;;;8.02;4.65;;;;;;;9.27;68.25;102508.06;5097585;28;20067;-64
2024/01/30 02:48:01;;;;;;;6.93;4.32;;;;;;;9.28;68.26;102511.56;5096538;28;20044;-63
2024/01/30 02:50:29;;;;;;;6.88;4.05;;;;;;;9.25;68.50;102501.19;5092545;28;20048;-63
2024/01/30 02:52:57;;;;;;;6.03;4.38;;;;;;;9.29;67.88;102506.03;5088396;28;20412;-65
2024/01/30 02:55:24;;;;;;;6.45;4.03;;;;;;;9.28;67.86;102511.56;5095018;28;20048;-64
2024/01/30 02:57:54;;;;;;;6.05;3.63;;;;;;;9.27;67.91;102508.06;5088406;28;20056;-64
2024/01/30 03:00:22;;;;;;;9.73;4.30;;;;;;;9.27;68.10;102512.59;5093919;28;20087;-64
2024/01/30 03:02:49;;;;;;;7.15;4.55;;;;;;;9.27;68.33;102509.91;5092020;28;20068;-65
2024/01/30 03:05:17;;;;;;;8.68;4.22;;;;;;;9.28;68.21;102508.91;5095308;28;20443;-64
2024/01/30 03:07:45;;;;;;;7.10;4.13;;;;;;;9.28;67.97;102508.91;5102980;28;20044;-64
2024/01/30 03:10:13;;;;;;;6.25;3.65;;;;;;;9.27;67.91;102499.16;5092756;28;20044;-64
2024/01/30 03:12:41;;;;;;;5.40;3.55;;;;;;;9.26;68.20;102494.81;5096089;28;20064;-62
2024/01/30 03:15:10;;;;;;;6.55;3.50;;;;;;;9.27;68.12;102499.16;5097624;28;20040;-63
2024/01/30 03:17:38;;;;;;;7.45;4.20;;;;;;;9.24;68.02;102495.00;5092379;28;20056;-63
2024/01/30 03:20:07;;;;;;;6.03;3.97;;;;;;;9.24;68.38;102491.47;5095562;28;20048;-63
2024/01/30 03:22:35;;;;;;;6.90;4.18;;;;;;;9.23;68.03;102484.44;5089290;28;20132;-63
2024/01/30 03:25:03;;;;;;;7.05;4.00;;;;;;;9.21;67.92;102484.59;5097655;28;20063;-63
2024/01/30 03:27:31;;;;;;;6.93;4.18;;;;;;;9.21;68.35;102481.09;5094714;28;20118;-63
2024/01/30 03:29:59;;;;;;;6.85;4.10;;;;;;;9.20;68.06;102482.94;5087662;28;20117;-63
2024/01/30 03:32:28;;;;;;;7.38;4.00;;;;;;;9.20;68.49;102474.03;5092942;28;20143;-64
2024/01/30 03:34:56;;;;;;;5.70;3.65;;;;;;;9.19;68.02;102478.56;5093196;28;20719;-64
2024/01/30 03:37:24;;;;;;;6.53;4.07;;;;;;;9.18;68.52;102479.59;5102340;28;20048;-63
2024/01/30 03:39:52;;;;;;;8.90;4.07;;;;;;;9.18;68.13;102478.75;5100672;28;20165;-63
2024/01/30 03:42:20;;;;;;;7.78;4.35;;;;;;;9.17;67.90;102474.38;5097365;28;20051;-64
2024/01/30 03:44:48;;;;;;;4.93;3.30;;;;;;;9.17;67.93;102485.97;5100369;28;20040;-64
2024/01/30 03:47:16;;;;;;;6.30;3.88;;;;;;;9.17;68.51;102485.13;5098599;28;20109;-64
2024/01/30 03:49:45;;;;;;;5.93;3.70;;;;;;;9.16;68.44;102478.91;5090702;28;20113;-63
2024/01/30 03:52:13;;;;;;;5.93;3.75;;;;;;;9.13;68.69;102481.94;5100520;28;20052;-63
2024/01/30 03:54:41;;;;;;;6.55;4.47;;;;;;;9.14;68.38;102495.19;5105213;28;20051;-63
2024/01/30 03:57:09;;;;;;;7.07;4.18;;;;;;;9.13;68.51;102480.09;5093144;28;20051;-63
2024/01/30 03:59:36;;;;;;;7.05;4.30;;;;;;;9.12;68.19;102482.94;5099731;28;20078;-64
2024/01/30 04:02:04;;;;;;;6.82;3.83;;;;;;;9.13;68.41;102488.16;5101049;28;20390;-63
2024/01/30 04:04:32;;;;;;;6.57;4.13;;;;;;;9.12;67.97;102489.16;5091472;28;20127;-64
2024/01/30 04:07:01;;;;;;;6.00;4.07;;;;;;;9.12;68.13;102489.16;5099775;28;20060;-63
2024/01/30 04:09:29;;;;;;;7.32;3.80;;;;;;;9.12;68.35;102488.31;5100890;28;20048;-63
2024/01/30 04:11:57;;;;;;;5.97;3.30;;;;;;;9.12;68.75;102483.78;5098272;28;20044;-63
2024/01/30 04:14:25;;;;;;;7.45;3.70;;;;;;;9.12;68.63;102489.16;5102339;28;20074;-64
2024/01/30 04:16:53;;;;;;;6.60;3.50;;;;;;;9.11;68.57;102487.47;5099278;28;20052;-64
2024/01/30 04:19:20;;;;;;;7.63;4.20;;;;;;;9.11;68.21;102484.78;5097743;28;20048;-64
2024/01/30 04:21:48;;;;;;;5.85;4.00;;;;;;;9.11;68.50;102479.44;5103783;28;20046;-63
2024/01/30 04:24:18;;;;;;;6.60;4.40;;;;;;;9.12;68.15;102480.28;5099482;28;20148;-63
2024/01/30 04:26:46;;;;;;;5.93;3.92;;;;;;;9.10;68.85;102477.75;5099441;28;20040;-64
2024/01/30 04:29:14;;;;;;;6.05;3.67;;;;;;;9.09;68.31;102475.25;5102400;28;20120;-64
2024/01/30 04:31:41;;;;;;;7.88;3.95;;;;;;;9.08;68.68;102466.38;5100042;28;20373;-64
2024/01/30 04:34:09;;;;;;;6.85;3.47;;;;;;;9.08;68.58;102474.41;5091192;28;20052;-64
2024/01/30 04:36:37;;;;;;;6.07;4.25;;;;;;;9.10;68.56;102471.56;5105124;28;20060;-64
2024/01/30 04:39:05;;;;;;;6.50;3.20;;;;;;;9.09;68.36;102465.34;5103563;28;20070;-63
2024/01/30 04:41:34;;;;;;;5.85;3.60;;;;;;;9.11;68.73;102457.16;5101373;28;20052;-63
2024/01/30 04:44:02;;;;;;;5.45;3.70;;;;;;;9.12;68.71;102451.59;5098021;28;20052;-63
2024/01/30 04:46:30;;;;;;;7.25;3.72;;;;;;;9.14;68.31;102460.31;5093539;28;20078;-63
2024/01/30 04:48:58;;;;;;;4.90;3.33;;;;;;;9.15;68.75;102445.06;5092113;28;20491;-63
2024/01/30 04:51:25;;;;;;;4.78;3.22;;;;;;;9.14;68.43;102449.59;5087214;28;20079;-63
2024/01/30 04:53:53;;;;;;;7.18;3.60;;;;;;;9.15;68.25;102442.38;5093992;28;20115;-64
2024/01/30 04:56:21;;;;;;;6.63;3.67;;;;;;;9.16;68.68;102440.53;5087111;28;20055;-63
2024/01/30 04:58:50;;;;;;;6.45;3.75;;;;;;;9.17;68.38;102436.84;5105771;28;20117;-63
2024/01/30 05:01:18;;;;;;;8.88;3.92;;;;;;;9.17;69.02;102444.88;5089643;28;20052;-63
2024/01/30 05:03:46;;;;;;;7.68;3.42;;;;;;;9.16;68.35;102433.31;5095159;28;20081;-63
2024/01/30 05:06:24;;;;;;;5.43;3.63;;;;;;;9.16;68.32;102438.69;5094218;28;20044;-63
2024/01/30 05:08:52;;;;;;;7.35;4.00;;;;;;;9.17;68.93;102444.88;5092088;28;20112;-64
2024/01/30 05:11:20;;;;;;;4.88;3.22;;;;;;;9.13;68.75;102437.19;5093360;28;20049;-64
2024/01/30 05:13:48;;;;;;;5.65;3.55;;;;;;;9.17;68.66;102443.03;5085262;28;20070;-63
2024/01/30 05:16:17;;;;;;;6.93;3.13;;;;;;;9.17;68.93;102445.72;5093750;28;20056;-63
2024/01/30 05:18:45;;;;;;;9.50;4.00;;;;;;;9.18;68.62;102450.06;5086093;28;20084;-64
2024/01/30 05:21:13;;;;;;;6.25;3.42;;;;;;;9.18;68.80;102451.91;5098036;28;20100;-63
2024/01/30 05:23:41;;;;;;;5.32;3.42;;;;;;;9.18;68.65;102452.75;5103085;28;20040;-63
2024/01/30 05:26:09;;;;;;;6.22;3.78;;;;;;;9.18;68.71;102447.41;5098930;28;20051;-62
2024/01/30 05:28:37;;;;;;;6.13;3.67;;;;;;;9.19;68.77;102449.06;5098496;28;20068;-62
2024/01/30 05:31:05;;;;;;;5.47;3.38;;;;;;;9.19;68.71;102448.22;5100156;28;20044;-63
2024/01/30 05:33:34;;;;;;;7.00;3.45;;;;;;;9.18;68.98;102447.41;5093778;28;20056;-63
2024/01/30 05:36:03;;;;;;;6.60;3.50;;;;;;;9.19;68.99;102448.22;5088134;28;20533;-64
2024/01/30 05:38:31;;;;;;;4.63;3.20;;;;;;;9.16;69.10;102444.03;5104140;28;20522;-63
2024/01/30 05:40:59;;;;;;;10.35;3.53;;;;;;;9.17;68.63;102452.94;5096694;28;20190;-62
2024/01/30 05:43:27;;;;;;;9.18;3.40;;;;;;;9.18;69.18;102443.88;5088444;28;20053;-63
2024/01/30 05:45:55;;;;;;;6.22;3.42;;;;;;;9.17;68.88;102444.88;5097761;28;20047;-64
2024/01/30 05:48:23;;;;;;;6.53;3.45;;;;;;;9.18;68.86;102450.06;5094336;28;20057;-64
2024/01/30 05:50:52;;;;;;;4.57;3.10;;;;;;;9.19;68.71;102449.06;5101688;28;20048;-63
2024/01/30 05:53:20;;;;;;;6.43;3.28;;;;;;;9.18;69.07;102455.44;5092813;28;20386;-64
2024/01/30 05:55:48;;;;;;;6.25;3.17;;;;;;;9.18;68.78;102458.13;5098337;28;20082;-64
2024/01/30 05:58:16;;;;;;;4.13;3.05;;;;;;;9.18;69.08;102457.28;5089712;28;20055;-64
2024/01/30 06:00:43;;;;;;;5.43;3.00;;;;;;;9.18;68.70;102454.59;5096650;28;20062;-63
2024/01/30 06:03:11;;;;;;;5.93;3.47;;;;;;;9.18;69.04;102451.91;5085785;28;20053;-63
2024/01/30 06:05:39;;;;;;;4.30;3.20;;;;;;;9.19;68.99;102450.91;5096329;28;20055;-64
2024/01/30 06:08:08;;;;;;;8.45;3.58;;;;;;;9.19;69.10;102449.06;5094614;28;20102;-63
2024/01/30 06:10:36;;;;;;;4.25;3.00;;;;;;;9.19;69.07;102450.91;5095051;28;20048;-63
2024/01/30 06:13:04;;;;;;;6.22;2.95;;;;;;;9.18;69.14;102450.06;5090295;28;20052;-64
2024/01/30 06:15:32;;;;;;;5.85;3.63;;;;;;;9.19;69.24;102453.59;5094167;28;20039;-65
2024/01/30 06:18:00;;;;;;;7.20;3.65;;;;;;;9.21;69.24;102451.56;5089062;28;20104;-66
2024/01/30 06:20:28;;;;;;;4.47;2.90;;;;;;;9.24;69.21;102448.53;5089706;28;20044;-63
2024/01/30 06:22:56;;;;;;;5.75;3.60;;;;;;;9.24;69.48;102453.91;5090537;28;20056;-62
2024/01/30 06:25:25;;;;;;;5.93;3.42;;;;;;;9.23;69.27;102452.25;5102816;28;20097;-62
2024/01/30 06:27:53;;;;;;;5.43;3.08;;;;;;;9.17;69.03;102442.19;5095840;28;20048;-60
2024/01/30 06:30:21;;;;;;;5.88;3.30;;;;;;;9.24;69.71;102456.59;5095787;28;20107;-61
2024/01/30 06:32:49;;;;;;;5.20;3.33;;;;;;;9.22;69.13;102462.13;5091942;28;20049;-61
2024/01/30 06:35:17;;;;;;;5.60;3.42;;;;;;;9.21;69.50;102460.47;5097171;28;20151;-60
2024/01/30 06:37:45;;;;;;;6.53;3.60;;;;;;;9.21;69.37;102462.31;5091253;28;20052;-62
2024/01/30 06:40:13;;;;;;;6.07;3.22;;;;;;;9.20;69.56;102455.28;5086484;28;20049;-61
2024/01/30 06:42:42;;;;;;;7.57;3.38;;;;;;;9.22;69.58;102474.72;5086623;28;20053;-63
2024/01/30 06:45:10;;;;;;;6.63;3.15;;;;;;;9.22;69.36;102463.97;4737230;28;9999963;-64
2024/01/30 06:47:38;;;;;;;5.70;3.05;;;;;;;9.22;69.33;102461.28;5089618;28;20096;-61
2024/01/30 06:50:07;;;;;;;5.50;3.55;;;;;;;9.22;69.04;102467.50;5088227;28;20052;-64
2024/01/30 06:52:35;;;;;;;4.22;2.83;;;;;;;9.22;69.36;102485.44;5088288;28;20432;-64
2024/01/30 06:55:03;;;;;;;5.25;2.95;;;;;;;9.24;69.07;102478.06;5094217;28;20062;-62
2024/01/30 06:57:31;;;;;;;8.75;3.40;;;;;;;9.25;69.01;102485.94;5093939;28;20048;-62
2024/01/30 07:00:00;;;;;;;5.15;2.80;;;;;;;9.27;69.25;102483.06;5094145;28;20555;-62
2024/01/30 07:02:28;;;;;;;5.78;3.10;;;;;;;9.28;69.17;102480.22;5088567;28;20102;-61
2024/01/30 07:04:55;;;;;;;7.85;3.78;;;;;;;9.27;69.86;102486.59;5089188;28;20715;-61
2024/01/30 07:07:23;;;;;;;6.70;3.40;;;;;;;9.29;69.14;102498.00;5092306;28;20059;-60
2024/01/30 07:09:56;;;;;;;7.75;3.90;;;;;;;9.28;69.40;102503.53;5085368;28;20116;-60
2024/01/30 07:12:25;;;;;;;4.88;3.17;;;;;;;9.27;69.50;102505.38;5096244;28;20402;-61
2024/01/30 07:14:53;;;;;;;5.13;3.38;;;;;;;9.30;69.64;102512.25;5089038;28;20047;-61
2024/01/30 07:17:22;;;;;;;5.63;3.35;;;;;;;9.30;68.97;102514.94;5095453;28;20044;-62
2024/01/30 07:19:50;;;;;;;7.32;3.25;;;;;;;9.32;68.98;102518.28;5102748;28;20459;-62
2024/01/30 07:22:18;;;;;;;6.60;3.97;;;;;;;9.33;68.83;102519.94;5090574;28;20071;-62
2024/01/30 07:24:47;;;;;;;6.50;3.63;;;;;;;9.32;69.41;102518.28;5090907;28;20044;-61
2024/01/30 07:27:17;;;;;;;7.43;3.28;;;;;;;9.33;69.01;102519.94;5088833;28;20066;-61
2024/01/30 07:29:45;;;;;;;5.40;2.88;;;;;;;9.33;69.41;102522.63;5106469;28;20134;-62
2024/01/30 07:32:13;;;;;;;6.32;2.85;;;;;;;9.34;69.55;102518.94;5096359;28;20052;-62
2024/01/30 07:34:42;;;;;;;6.40;3.05;;;;;;;9.33;69.10;102526.16;5103212;28;20177;-63
2024/01/30 07:37:29;;;;;;;9.75;3.75;;;;;;;9.35;69.05;102534.03;5101278;28;20048;-62
2024/01/30 07:39:57;;;;;;;6.28;3.50;;;;;;;9.34;69.11;102530.50;5094164;28;20076;-63
2024/01/30 07:42:25;;;;;;;5.60;3.60;;;;;;;9.35;69.38;102537.53;5102047;28;20123;-62
2024/01/30 07:44:53;;;;;;;8.95;3.92;;;;;;;9.36;69.38;102533.00;5094965;28;20040;-62
2024/01/30 07:47:21;;;;;;;9.70;4.25;;;;;;;9.40;69.73;102532.50;5098663;28;20052;-62
2024/01/30 07:49:51;;;;;;;5.97;3.60;;;;;;;9.44;69.62;102536.50;5097282;28;20048;-62
2024/01/30 07:52:19;;;;;;;7.38;3.10;;;;;;;9.49;68.85;102540.53;5100736;28;20142;-62
2024/01/30 07:54:50;;;;;;;7.05;3.67;;;;;;;9.50;69.16;102548.41;5094379;28;20101;-65
2024/01/30 07:57:17;;;;;;;7.47;3.30;;;;;;;9.51;68.60;102539.34;5093102;28;20055;-63
2024/01/30 07:59:45;;;;;;;8.18;3.65;;;;;;;9.52;69.07;102551.75;5091143;28;20052;-63
2024/01/30 08:02:14;;;;;;;7.93;3.70;;;;;;;9.52;68.82;102556.28;5092727;28;20048;-64
2024/01/30 08:04:42;;;;;;;7.28;3.70;;;;;;;9.50;68.94;102559.13;5090397;28;20048;-62
2024/01/30 08:07:11;;;;;;;7.63;4.45;;;;;;;9.50;68.81;102559.13;5099201;28;20036;-61
2024/01/30 08:09:39;;;;;;;6.85;3.45;;;;;;;9.49;68.98;102560.16;5099524;28;20489;-62
2024/01/30 08:12:07;;;;;;;6.45;3.40;;;;;;;9.53;68.80;102566.84;5093646;28;20052;-61
2024/01/30 08:14:35;;;;;;;6.05;3.17;;;;;;;9.55;68.69;102567.50;5097860;28;20067;-61
2024/01/30 08:17:07;;;;;;;7.63;3.95;;;;;;;9.61;68.71;102565.97;5099847;28;20040;-62
2024/01/30 08:19:35;;;;;;;7.85;4.00;;;;;;;9.59;68.45;102563.47;5100838;28;20173;-62
2024/01/30 08:22:03;;;;;;;5.68;3.60;;;;;;;9.62;68.71;102560.44;5099414;28;20052;-63
2024/01/30 08:24:32;;;;;;;8.85;3.75;;;;;;;9.62;68.59;102562.28;5095108;28;20112;-62
2024/01/30 08:27:02;;;;;;;5.95;3.60;;;;;;;9.46;68.73;102544.38;5094125;28;20052;-61
2024/01/30 08:29:30;;;;;;;6.95;3.85;;;;;;;9.60;68.67;102567.81;5100981;28;20480;-63
2024/01/30 08:31:59;;;;;;;10.07;4.47;;;;;;;9.59;68.78;102562.63;5094155;28;20071;-62
2024/01/30 08:34:27;;;;;;;5.60;3.30;;;;;;;9.58;68.76;102567.16;5094957;28;20574;-62
2024/01/30 08:36:55;;;;;;;5.50;3.05;;;;;;;9.59;68.87;102565.31;5100846;28;20048;-62
2024/01/30 08:39:22;;;;;;;8.93;3.65;;;;;;;9.58;69.07;102563.63;5096039;28;20048;-63
2024/01/30 08:41:52;;;;;;;8.43;3.72;;;;;;;9.59;68.95;102563.47;5092939;28;20048;-62
2024/01/30 08:44:20;;;;;;;6.82;3.15;;;;;;;9.58;69.17;102566.31;5090194;28;20048;-62
2024/01/30 08:46:49;;;;;;;6.32;3.38;;;;;;;9.57;68.76;102568.16;5089100;28;20045;-63
2024/01/30 08:49:18;;;;;;;6.20;3.50;;;;;;;9.58;68.84;102563.63;5092411;28;20134;-63
2024/01/30 08:51:46;;;;;;;6.45;3.25;;;;;;;9.56;69.21;102566.50;5102848;28;20075;-64
2024/01/30 08:54:14;;;;;;;5.22;3.63;;;;;;;9.57;68.95;102568.16;5093746;28;20048;-64
2024/01/30 08:56:42;;;;;;;5.60;3.30;;;;;;;9.57;69.05;102567.34;5090559;28;20049;-63
2024/01/30 08:59:11;;;;;;;6.70;3.03;;;;;;;9.56;69.44;102563.81;5098636;28;20073;-62
2024/01/30 09:01:40;;;;;;;7.40;3.08;;;;;;;9.56;69.12;102562.97;5102342;28;20134;-63
2024/01/30 09:04:22;;;;;;;6.75;3.25;;;;;;;9.64;69.24;102566.47;5097288;28;20071;-63
2024/01/30 09:06:53;;;;;;;6.10;3.33;;;;;;;9.80;68.61;102557.50;5094784;28;20036;-61
2024/01/30 09:09:21;;;;;;;5.47;3.60;;;;;;;9.95;68.06;102557.59;5092864;28;20058;-63
2024/01/30 09:11:48;;;;;;;8.38;3.60;;;;;;;10.13;67.52;102560.03;5095212;28;20043;-62
2024/01/30 09:14:18;;;;;;;6.22;4.30;;;;;;;10.32;66.95;102557.75;5092323;28;20058;-63
2024/01/30 09:16:45;;;;;;;7.57;4.28;;;;;;;10.46;66.35;102556.13;5098333;28;20481;-62
2024/01/30 09:19:13;;;;;;;8.73;3.63;;;;;;;10.68;65.72;102575.94;5092511;28;20051;-63
2024/01/30 09:21:41;;;;;;;7.40;3.42;;;;;;;10.85;65.13;102573.97;5093242;28;20058;-63
2024/01/30 09:24:09;;;;;;;6.90;3.25;;;;;;;11.03;64.47;102579.84;4740470;28;10000111;-64
2024/01/30 09:26:37;;;;;;;6.00;3.17;;;;;;;11.20;64.07;102569.75;5093293;28;20113;-63
2024/01/30 09:29:04;;;;;;;5.72;3.10;;;;;;;11.33;63.89;102576.19;5094045;28;20044;-62
2024/01/30 09:31:34;;;;;;;5.90;3.08;;;;;;;11.44;63.39;102577.59;5087340;28;20048;-62
2024/01/30 09:34:02;;;;;;;6.25;3.85;;;;;;;11.50;63.28;102576.00;5094872;28;20327;-62
2024/01/30 09:36:30;;;;;;;4.80;2.90;;;;;;;11.56;63.19;102581.47;5090168;28;20062;-62
2024/01/30 09:38:57;;;;;;;6.43;3.20;;;;;;;11.61;62.76;102573.69;5094313;28;20101;-62
2024/01/30 09:41:26;;;;;;;7.13;3.13;;;;;;;11.59;63.17;102580.28;5092500;28;20048;-63
2024/01/30 09:43:57;;;;;;;6.57;3.00;;;;;;;11.63;63.18;102587.78;5092847;28;20047;-63
2024/01/30 09:46:28;;;;;;;5.05;3.05;;;;;;;11.67;62.99;102590.97;5086596;28;20131;-63
2024/01/30 09:48:59;;;;;;;6.78;3.95;;;;;;;11.70;63.16;102595.97;5086901;28;20048;-64
2024/01/30 09:51:28;;;;;;;5.70;3.50;;;;;;;11.73;62.76;102596.44;5087974;28;20052;-63
2024/01/30 09:53:57;;;;;;;5.22;2.80;;;;;;;11.80;62.61;102598.41;5087154;28;20056;-63
2024/01/30 09:56:25;;;;;;;6.68;3.45;;;;;;;11.80;62.90;102595.72;5093013;28;20047;-63
2024/01/30 09:58:53;;;;;;;6.53;3.25;;;;;;;11.82;63.04;102599.91;5093980;28;20114;-62
2024/01/30 10:01:21;;;;;;;6.90;3.50;;;;;;;11.85;62.82;102606.75;5088969;28;20632;-62
2024/01/30 10:03:53;;;;;;;5.22;3.33;;;;;;;11.88;62.88;102609.09;5086212;28;20330;-61
2024/01/30 10:06:23;;;;;;;12.35;3.67;;;;;;;11.86;62.76;102601.19;5091172;28;20110;-62
2024/01/30 10:08:51;;;;;;;7.95;2.97;;;;;;;11.90;62.71;102602.50;5091387;28;20047;-64
2024/01/30 10:11:19;;;;;;;5.60;2.90;;;;;;;11.94;62.85;102598.41;5091639;28;20102;-63
2024/01/30 10:13:47;;;;;;;6.13;3.40;;;;;;;12.00;62.38;102599.50;5088536;28;20063;-62
2024/01/30 10:16:16;;;;;;;6.90;3.33;;;;;;;12.00;62.82;102605.72;5101617;28;20086;-63
2024/01/30 10:18:44;;;;;;;4.93;3.00;;;;;;;12.02;62.71;102605.53;5097585;28;20113;-62
2024/01/30 10:21:13;;;;;;;6.90;3.20;;;;;;;12.00;62.81;102604.88;5086031;28;20146;-63
2024/01/30 10:23:44;;;;;;;6.80;3.53;;;;;;;11.85;63.32;102607.59;5083879;28;20055;-64
2024/01/30 10:26:12;;;;;;;10.43;3.83;;;;;;;11.66;63.88;102600.91;5093525;28;20107;-64
2024/01/30 10:28:40;;;;;;;8.38;3.97;;;;;;;11.55;64.33;102616.69;5087685;28;20049;-63
2024/01/30 10:31:08;;;;;;;6.40;3.40;;;;;;;11.37;64.80;102614.34;5100473;28;20068;-62
2024/01/30 10:33:36;;;;;;;7.25;3.20;;;;;;;11.23;65.50;102612.47;5090655;28;20066;-61
2024/01/30 10:36:06;;;;;;;6.63;3.40;;;;;;;11.13;65.80;102623.47;5083836;28;20215;-63
2024/01/30 10:38:34;;;;;;;7.03;3.50;;;;;;;11.04;66.03;102625.41;5089753;28;20440;-60
2024/01/30 10:41:04;;;;;;;9.82;3.95;;;;;;;10.96;66.75;102622.78;5094611;28;20044;-60
2024/01/30 10:43:34;;;;;;;9.52;4.00;;;;;;;10.90;66.98;102628.88;5100682;28;20127;-60
2024/01/30 10:46:11;;;;;;;7.10;3.78;;;;;;;10.85;67.48;102641.19;5089860;28;20052;-61
2024/01/30 10:48:44;;;;;;;9.00;3.90;;;;;;;10.79;67.75;102637.38;5090806;28;20056;-62
2024/01/30 10:51:14;;;;;;;9.40;4.07;;;;;;;10.79;67.90;102640.06;5093102;28;20135;-62
2024/01/30 10:53:42;;;;;;;7.60;4.30;;;;;;;10.89;67.83;102632.59;5094345;28;20113;-62
2024/01/30 10:56:12;;;;;;;9.13;4.60;;;;;;;11.05;67.23;102631.63;5093721;28;20048;-62
2024/01/30 10:58:40;;;;;;;12.55;4.75;;;;;;;11.20;66.76;102628.97;5098387;28;20460;-62
2024/01/30 11:01:08;;;;;;;8.43;3.75;;;;;;;11.36;66.03;102620.75;5090863;28;20051;-60
2024/01/30 11:03:37;;;;;;;6.18;3.38;;;;;;;11.54;65.17;102626.59;5099565;28;20207;-60
2024/01/30 11:06:05;;;;;;;8.63;3.50;;;;;;;11.71;65.10;102625.41;5094266;28;20461;-62
2024/01/30 11:08:34;;;;;;;7.45;3.95;;;;;;;11.84;64.31;102623.94;5082655;28;20409;-61
2024/01/30 11:11:02;;;;;;;5.95;3.60;;;;;;;12.01;63.79;102628.13;5087932;28;20066;-61
2024/01/30 11:13:32;;;;;;;5.38;3.40;;;;;;;12.12;63.75;102629.50;5096560;28;20047;-61
2024/01/30 11:16:04;;;;;;;6.80;4.15;;;;;;;12.10;63.80;102623.47;5091673;28;20187;-61
2024/01/30 11:18:33;;;;;;;10.85;3.97;;;;;;;12.01;64.03;102618.19;5088990;28;20577;-61
2024/01/30 11:21:02;;;;;;;7.63;3.50;;;;;;;11.85;64.18;102628.31;5093406;28;20417;-61
2024/01/30 11:23:30;;;;;;;6.43;3.75;;;;;;;11.67;64.88;102628.66;5087389;28;20180;-61
2024/01/30 11:25:58;;;;;;;8.05;4.25;;;;;;;11.54;65.71;102632.00;5095957;28;20048;-62
2024/01/30 11:28:35;;;;;;;7.60;3.85;;;;;;;11.39;65.79;102634.66;5096191;28;20097;-61
2024/01/30 11:31:07;;;;;;;7.22;4.22;;;;;;;11.30;66.58;102641.16;5084800;28;20059;-61
2024/01/30 11:33:36;;;;;;;10.32;4.63;;;;;;;11.23;66.67;102632.13;5088259;28;20510;-61
2024/01/30 11:36:06;;;;;;;11.23;5.05;;;;;;;11.17;66.92;102632.03;5084090;28;20113;-61
2024/01/30 11:38:34;;;;;;;10.60;4.30;;;;;;;11.14;67.09;102630.53;5093953;28;20082;-61